Time;durP1;ratioP1;P1;durP2;ratioP2;P2;SDS_P1;SDS_P2;PMS_P1;PMS_P2;Temp;Humidity;BMP_temperature;BMP_pressure;BME280_temperature;BME280_humidity;BME280_pressure;Samples;Min_cycle;Max_cycle;Signal;HPM_P1;HPM_P2
2022/04/23 00:00:29;;;;;;;;;;;;;;;6.98;100.00;94573.81;1019174;29;19922;-71
2022/04/23 00:00:59;;;;;;;;;;;;;;;7.03;100.00;94573.00;1018691;29;19945;-72
2022/04/23 00:01:30;;;;;;;;;;;;;;;7.05;100.00;94573.53;1018426;29;20256;-71
2022/04/23 00:02:00;;;;;;;;;;;;;;;7.05;100.00;94576.13;1018847;29;19919;-71
2022/04/23 00:02:30;;;;;;;;;;;;;;;7.06;100.00;94577.69;1015907;29;19919;-71
2022/04/23 00:03:01;;;;;;;;;;;;;;;7.05;100.00;94570.94;1019258;29;20346;-71
2022/04/23 00:03:31;;;;;;;;;;;;;;;7.04;100.00;94571.94;1019368;29;20337;-71
2022/04/23 00:04:04;;;;;;;;;;;;;;;7.06;100.00;94569.88;1015142;29;19920;-72
2022/04/23 00:04:35;;;;;;;;;;;;;;;7.02;100.00;94572.22;1023069;28;19945;-72
2022/04/23 00:05:05;;;;;;;;;;;;;;;6.93;100.00;94566.00;1019387;29;19923;-71
2022/04/23 00:05:36;;;;;;;;;;;;;;;6.91;100.00;94569.94;1020088;28;20456;-71
2022/04/23 00:06:07;;;;;;;;;;;;;;;6.91;100.00;94569.94;1026894;28;19919;-72
2022/04/23 00:06:37;;;;;;;;;;;;;;;6.94;100.00;94569.41;1024474;28;19950;-72
2022/04/23 00:07:08;;;;;;;;;;;;;;;6.95;100.00;94574.34;1026468;28;20277;-71
2022/04/23 00:07:38;;;;;;;;;;;;;;;6.96;100.00;94572.53;1019412;29;19926;-72
2022/04/23 00:08:08;;;;;;;;;;;;;;;6.96;100.00;94570.69;1014995;29;20659;-72
2022/04/23 00:08:39;;;;;;;;;;;;;;;6.90;100.00;94568.38;1011703;29;20347;-71
2022/04/23 00:09:09;;;;;;;;;;;;;;;6.89;100.00;94569.44;1011786;29;19918;-72
2022/04/23 00:09:39;;;;;;;;;;;;;;;6.84;100.00;94570.22;1014588;29;19911;-69
2022/04/23 00:10:10;;;;;;;;;;;;;;;6.87;100.00;94566.31;1015120;29;20425;-70
2022/04/23 00:10:40;;;;;;;;;;;;;;;6.76;100.00;94568.94;1019376;29;19911;-70
2022/04/23 00:11:10;;;;;;;;;;;;;;;6.78;100.00;94566.88;1015275;29;20083;-71
2022/04/23 00:11:41;;;;;;;;;;;;;;;6.79;100.00;94571.03;1016226;29;19931;-71
2022/04/23 00:12:12;;;;;;;;;;;;;;;6.80;100.00;94575.19;1026612;28;19984;-70
2022/04/23 00:12:46;;;;;;;;;;;;;;;6.81;100.00;94576.00;1027187;28;20280;-72
2022/04/23 00:13:19;;;;;;;;;;;;;;;6.79;100.00;94578.84;1023200;29;19914;-71
2022/04/23 00:13:49;;;;;;;;;;;;;;;6.80;100.00;94575.19;1023797;28;19962;-71
2022/04/23 00:14:20;;;;;;;;;;;;;;;6.82;100.00;94575.72;1019744;28;19911;-71
2022/04/23 00:14:51;;;;;;;;;;;;;;;6.79;100.00;94571.03;1020268;29;19915;-71
2022/04/23 00:15:24;;;;;;;;;;;;;;;6.78;100.00;94568.69;1023170;29;19985;-71
2022/04/23 00:15:54;;;;;;;;;;;;;;;6.73;100.00;94569.47;1027081;28;20013;-71
2022/04/23 00:16:25;;;;;;;;;;;;;;;6.71;100.00;94566.38;1026818;28;19914;-71
2022/04/23 00:16:57;;;;;;;;;;;;;;;6.72;100.00;94572.38;1022321;29;19910;-71
2022/04/23 00:17:28;;;;;;;;;;;;;;;6.75;100.00;94564.03;1017416;29;19911;-71
2022/04/23 00:17:58;;;;;;;;;;;;;;;6.73;100.00;94572.09;1019418;29;19963;-71
2022/04/23 00:18:28;;;;;;;;;;;;;;;6.74;100.00;94568.47;1023243;28;19907;-72
2022/04/23 00:19:01;;;;;;;;;;;;;;;6.72;100.00;94565.31;1023403;28;19915;-71
2022/04/23 00:19:32;;;;;;;;;;;;;;;6.76;100.00;94566.34;1031115;28;19918;-72
2022/04/23 00:20:02;;;;;;;;;;;;;;;6.74;100.00;94562.44;1027215;28;20447;-71
2022/04/23 00:20:33;;;;;;;;;;;;;;;6.68;100.00;94564.31;1026920;28;20454;-70
2022/04/23 00:21:06;;;;;;;;;;;;;;;6.70;100.00;94569.25;1030732;28;19914;-72
2022/04/23 00:21:36;;;;;;;;;;;;;;;6.70;100.00;94570.00;1031264;28;20438;-71
2022/04/23 00:22:06;;;;;;;;;;;;;;;6.70;100.00;94562.19;1027046;28;19914;-71
2022/04/23 00:22:37;;;;;;;;;;;;;;;6.67;100.00;94562.72;1023000;28;19930;-72
2022/04/23 00:23:08;;;;;;;;;;;;;;;6.61;100.00;94556.00;1023069;29;19977;-71
2022/04/23 00:23:40;;;;;;;;;;;;;;;6.65;100.00;94561.44;1023253;28;20701;-72
2022/04/23 00:24:10;;;;;;;;;;;;;;;6.66;100.00;94561.16;1015896;29;20270;-71
2022/04/23 00:24:40;;;;;;;;;;;;;;;6.67;100.00;94562.72;1018996;29;19915;-70
2022/04/23 00:25:14;;;;;;;;;;;;;;;6.68;100.00;94564.31;1019120;29;19919;-71
2022/04/23 00:25:47;;;;;;;;;;;;;;;6.69;100.00;94563.25;1023151;28;20375;-71
2022/04/23 00:26:17;;;;;;;;;;;;;;;6.34;100.00;94514.66;1020559;28;20265;-71
2022/04/23 00:26:51;;;;;;;;;;;;;;;6.65;100.00;94561.44;1026506;28;19911;-70
2022/04/23 00:27:21;;;;;;;;;;;;;;;6.64;100.00;94558.06;1027081;28;19918;-72
2022/04/23 00:27:52;;;;;;;;;;;;;;;6.64;100.00;94563.28;1026899;28;19915;-71
2022/04/23 00:28:22;;;;;;;;;;;;;;;6.64;100.00;94558.06;1027013;28;19918;-71
2022/04/23 00:28:53;;;;;;;;;;;;;;;6.67;100.00;94560.13;1026930;28;19933;-71
2022/04/23 00:29:23;;;;;;;;;;;;;;;6.70;100.00;94562.19;1025351;28;19929;-71
2022/04/23 00:29:54;;;;;;;;;;;;;;;6.68;100.00;94556.47;1023349;28;20443;-70
2022/04/23 00:30:24;;;;;;;;;;;;;;;6.69;100.00;94559.88;1027100;28;19964;-71
2022/04/23 00:30:54;;;;;;;;;;;;;;;6.68;100.00;94561.69;1023074;28;19917;-71
2022/04/23 00:31:26;;;;;;;;;;;;;;;6.70;100.00;94564.81;1022962;28;19929;-71
2022/04/23 00:31:57;;;;;;;;;;;;;;;6.68;100.00;94559.09;1023187;29;20480;-71
2022/04/23 00:32:27;;;;;;;;;;;;;;;6.72;100.00;94559.34;1023489;28;19981;-71
2022/04/23 00:33:00;;;;;;;;;;;;;;;6.71;100.00;94561.16;1027048;28;19914;-71
2022/04/23 00:33:31;;;;;;;;;;;;;;;6.68;100.00;94566.91;1031131;28;19920;-73
2022/04/23 00:34:01;;;;;;;;;;;;;;;6.66;100.00;94560.41;1031320;28;19917;-71
2022/04/23 00:34:31;;;;;;;;;;;;;;;6.64;100.00;94560.69;1022867;28;20435;-70
2022/04/23 00:35:02;;;;;;;;;;;;;;;6.65;100.00;94561.44;1019259;29;20237;-72
2022/04/23 00:35:32;;;;;;;;;;;;;;;6.60;100.00;94559.63;1019127;29;19911;-71
2022/04/23 00:36:10;;;;;;;;;;;;;;;6.67;100.00;94556.72;1019221;28;19922;-71
2022/04/23 00:36:40;;;;;;;;;;;;;;;6.70;100.00;94564.03;1027767;28;19922;-70
2022/04/23 00:37:12;;;;;;;;;;;;;;;6.73;100.00;94556.44;1026594;28;20371;-71
2022/04/23 00:37:44;;;;;;;;;;;;;;;6.77;100.00;94561.91;1027118;28;19953;-72
2022/04/23 00:38:16;;;;;;;;;;;;;;;6.75;100.00;94566.63;1018617;29;20016;-69
2022/04/23 00:38:49;;;;;;;;;;;;;;;6.74;100.00;94555.41;1019741;29;20337;-71
2022/04/23 00:39:20;;;;;;;;;;;;;;;6.74;100.00;94560.63;1024527;28;19919;-71
2022/04/23 00:39:50;;;;;;;;;;;;;;;6.76;100.00;94558.53;1025456;28;19922;-72
2022/04/23 00:40:21;;;;;;;;;;;;;;;6.77;100.00;94560.09;1031668;28;20443;-71
2022/04/23 00:40:51;;;;;;;;;;;;;;;6.72;100.00;94565.31;1023452;28;19922;-71
2022/04/23 00:42:11;;;;;;;;;;;;;;;6.74;100.00;94565.03;1017666;29;19915;-71
2022/04/23 00:42:47;;;;;;;;;;;;;;;6.73;100.00;94563.50;1020245;29;20021;-72
2022/04/23 00:43:25;;;;;;;;;;;;;;;6.74;100.00;94565.03;1026479;28;19911;-71
2022/04/23 00:43:55;;;;;;;;;;;;;;;6.76;100.00;94563.75;1026879;28;19969;-71
2022/04/23 00:44:25;;;;;;;;;;;;;;;6.79;100.00;94559.81;1028806;28;19981;-70
2022/04/23 00:44:55;;;;;;;;;;;;;;;6.80;100.00;94563.97;1031229;28;19914;-71
2022/04/23 00:45:26;;;;;;;;;;;;;;;6.79;100.00;94563.22;1030984;28;19938;-71
2022/04/23 00:45:56;;;;;;;;;;;;;;;6.79;100.00;94563.22;1030978;28;20490;-72
2022/04/23 00:46:27;;;;;;;;;;;;;;;6.83;100.00;94563.44;1026849;28;20419;-71
2022/04/23 00:46:57;;;;;;;;;;;;;;;6.84;100.00;94565.00;1022127;28;19915;-71
2022/04/23 00:47:27;;;;;;;;;;;;;;;6.83;100.00;94564.22;1019157;29;19911;-71
2022/04/23 00:48:00;;;;;;;;;;;;;;;6.81;100.00;94555.91;1018785;29;20447;-72
2022/04/23 00:48:31;;;;;;;;;;;;;;;6.81;100.00;94555.13;1019257;29;20416;-73
2022/04/23 00:49:03;;;;;;;;;;;;;;;6.80;100.00;94556.94;1016144;29;20022;-72
2022/04/23 00:49:33;;;;;;;;;;;;;;;6.75;100.00;94556.97;1015188;29;19959;-71
2022/04/23 00:50:04;;;;;;;;;;;;;;;6.78;100.00;94553.06;1019601;29;20385;-72
2022/04/23 00:50:34;;;;;;;;;;;;;;;6.77;100.00;94567.94;1015356;29;19930;-72
2022/04/23 00:51:04;;;;;;;;;;;;;;;6.74;100.00;94554.63;1019604;28;19990;-72
2022/04/23 00:51:35;;;;;;;;;;;;;;;6.73;100.00;94556.44;1022868;28;20219;-72
2022/04/23 00:52:05;;;;;;;;;;;;;;;6.34;100.00;94512.81;1018842;29;19946;-72
2022/04/23 00:52:36;;;;;;;;;;;;;;;6.67;100.00;94560.13;1018909;29;19950;-69
2022/04/23 00:53:06;;;;;;;;;;;;;;;6.66;100.00;94552.56;1013061;29;19983;-71
2022/04/23 00:53:37;;;;;;;;;;;;;;;6.67;100.00;94559.34;1015046;29;19919;-72
2022/04/23 00:54:07;;;;;;;;;;;;;;;6.66;100.00;94555.97;1019334;29;20535;-72
2022/04/23 00:54:38;;;;;;;;;;;;;;;6.67;100.00;94562.72;1019078;28;20376;-72
2022/04/23 00:55:08;;;;;;;;;;;;;;;6.65;100.00;94551.81;1018914;29;20272;-72
2022/04/23 00:55:40;;;;;;;;;;;;;;;6.66;100.00;94553.34;1011434;29;19938;-72
2022/04/23 00:56:10;;;;;;;;;;;;;;;6.66;100.00;94555.97;1018922;29;19957;-72
2022/04/23 00:56:40;;;;;;;;;;;;;;;6.66;100.00;94557.78;1018612;29;19919;-71
2022/04/23 00:57:11;;;;;;;;;;;;;;;6.64;100.00;94554.66;1022951;28;19920;-72
2022/04/23 00:57:41;;;;;;;;;;;;;;;6.62;100.00;94557.53;1026838;28;19918;-72
2022/04/23 00:58:12;;;;;;;;;;;;;;;6.66;100.00;94555.97;1026637;28;20343;-71
2022/04/23 00:58:43;;;;;;;;;;;;;;;6.63;100.00;94559.09;1027075;28;19918;-72
2022/04/23 00:59:14;;;;;;;;;;;;;;;6.62;100.00;94562.75;1026803;28;19918;-72
2022/04/23 00:59:44;;;;;;;;;;;;;;;6.60;100.00;94559.63;1026801;28;19962;-72
2022/04/23 01:00:18;;;;;;;;;;;;;;;6.60;100.00;94559.63;1026716;28;19922;-71
2022/04/23 01:00:48;;;;;;;;;;;;;;;6.60;100.00;94562.22;1027564;28;19918;-72
2022/04/23 01:01:23;;;;;;;;;;;;;;;6.61;100.00;94561.22;1031083;28;19921;-72
2022/04/23 01:01:53;;;;;;;;;;;;;;;6.57;100.00;94562.75;1026698;28;19940;-71
2022/04/23 01:02:24;;;;;;;;;;;;;;;6.59;100.00;94560.69;1027385;28;19929;-71
2022/04/23 01:02:54;;;;;;;;;;;;;;;6.57;100.00;94563.56;1026257;28;19985;-71
2022/04/23 01:03:24;;;;;;;;;;;;;;;6.58;100.00;94559.13;1022696;28;19918;-71
2022/04/23 01:03:57;;;;;;;;;;;;;;;6.61;100.00;94571.63;1023142;29;19974;-71
2022/04/23 01:04:30;;;;;;;;;;;;;;;6.60;100.00;94564.84;1019114;29;20208;-71
2022/04/23 01:05:01;;;;;;;;;;;;;;;6.63;100.00;94563.53;1023573;28;19953;-72
2022/04/23 01:05:31;;;;;;;;;;;;;;;6.63;100.00;94560.94;1023046;28;19922;-72
2022/04/23 01:06:01;;;;;;;;;;;;;;;6.65;100.00;94559.63;1019296;29;20192;-72
2022/04/23 01:06:34;;;;;;;;;;;;;;;6.64;100.00;94563.28;1022680;28;19922;-69
2022/04/23 01:07:05;;;;;;;;;;;;;;;6.65;100.00;94561.44;1018163;29;20417;-69
2022/04/23 01:07:39;;;;;;;;;;;;;;;6.63;100.00;94566.91;1015437;29;19919;-72
2022/04/23 01:08:10;;;;;;;;;;;;;;;6.58;100.00;94566.94;1015047;29;20464;-71
2022/04/23 01:08:40;;;;;;;;;;;;;;;6.64;100.00;94565.88;1019504;29;19915;-72
2022/04/23 01:09:11;;;;;;;;;;;;;;;6.65;100.00;94557.00;1023825;28;20336;-70
2022/04/23 01:09:44;;;;;;;;;;;;;;;6.67;100.00;94567.94;1026971;28;20386;-72
2022/04/23 01:10:14;;;;;;;;;;;;;;;6.63;100.00;94561.69;1030767;28;19921;-72
2022/04/23 01:10:45;;;;;;;;;;;;;;;6.65;100.00;94564.06;1027082;28;19906;-71
2022/04/23 01:11:15;;;;;;;;;;;;;;;6.66;100.00;94568.22;1026765;28;20439;-69
2022/04/23 01:11:45;;;;;;;;;;;;;;;6.67;100.00;94569.78;1027642;28;20444;-72
2022/04/23 01:12:16;;;;;;;;;;;;;;;6.64;100.00;94571.09;1023952;28;19911;-71
2022/04/23 01:12:46;;;;;;;;;;;;;;;6.62;100.00;94562.75;1026710;28;19910;-71
2022/04/23 01:13:17;;;;;;;;;;;;;;;6.63;100.00;94564.31;1023021;29;19921;-69
2022/04/23 01:13:47;;;;;;;;;;;;;;;6.61;100.00;94567.19;1022891;28;19910;-72
2022/04/23 01:14:18;;;;;;;;;;;;;;;6.61;100.00;94563.81;1022844;28;20347;-69
2022/04/23 01:14:55;;;;;;;;;;;;;;;6.60;100.00;94568.22;1027204;28;19910;-72
2022/04/23 01:15:26;;;;;;;;;;;;;;;6.64;100.00;94571.09;1030840;28;19913;-71
2022/04/23 01:15:59;;;;;;;;;;;;;;;6.65;100.00;94571.88;1026783;28;19914;-72
2022/04/23 01:16:30;;;;;;;;;;;;;;;6.64;100.00;94565.88;1022853;29;19917;-72
2022/04/23 01:17:00;;;;;;;;;;;;;;;6.65;100.00;94564.84;1021963;29;19958;-72
2022/04/23 01:17:30;;;;;;;;;;;;;;;6.67;100.00;94565.31;1025087;28;19914;-69
2022/04/23 01:18:01;;;;;;;;;;;;;;;6.66;100.00;94569.00;1022879;29;19914;-72
2022/04/23 01:18:31;;;;;;;;;;;;;;;6.65;100.00;94567.44;1022760;29;19914;-69
2022/04/23 01:19:02;;;;;;;;;;;;;;;6.64;100.00;94573.72;1023950;28;19993;-71
2022/04/23 01:19:32;;;;;;;;;;;;;;;6.65;100.00;94564.84;1026836;28;19921;-69
2022/04/23 01:20:03;;;;;;;;;;;;;;;6.65;100.00;94567.44;1027241;28;19930;-70
2022/04/23 01:20:34;;;;;;;;;;;;;;;6.64;100.00;94568.50;1022778;29;19958;-70
2022/04/23 01:21:05;;;;;;;;;;;;;;;6.63;100.00;94569.53;1018931;28;20660;-70
2022/04/23 01:21:35;;;;;;;;;;;;;;;6.60;100.00;94570.06;1018786;29;20025;-69
2022/04/23 01:22:06;;;;;;;;;;;;;;;6.60;100.00;94562.22;1018969;29;20245;-71
2022/04/23 01:22:36;;;;;;;;;;;;;;;6.64;100.00;94565.88;1022745;28;19914;-72
2022/04/23 01:23:07;;;;;;;;;;;;;;;6.61;100.00;94566.41;1027197;28;20036;-72
2022/04/23 01:23:41;;;;;;;;;;;;;;;6.65;100.00;94564.84;1026878;28;20301;-71
2022/04/23 01:24:12;;;;;;;;;;;;;;;6.62;100.00;94570.56;1028431;28;20358;-68
2022/04/23 01:24:43;;;;;;;;;;;;;;;6.59;100.00;94564.06;1025158;28;19956;-71
2022/04/23 01:25:13;;;;;;;;;;;;;;;6.56;100.00;94569.03;1023411;28;19934;-71
2022/04/23 01:25:43;;;;;;;;;;;;;;;6.57;100.00;94571.38;1020475;28;20345;-71
2022/04/23 01:26:22;;;;;;;;;;;;;;;6.57;100.00;94570.56;1023001;28;20009;-72
2022/04/23 01:26:52;;;;;;;;;;;;;;;6.58;100.00;94572.16;1015466;29;20336;-68
2022/04/23 01:27:27;;;;;;;;;;;;;;;6.59;100.00;94576.31;1014116;28;19984;-69
2022/04/23 01:27:57;;;;;;;;;;;;;;;6.59;100.00;94578.94;1022921;29;19964;-72
2022/04/23 01:28:28;;;;;;;;;;;;;;;6.61;100.00;94574.25;1022464;29;20381;-70
2022/04/23 01:28:59;;;;;;;;;;;;;;;6.63;100.00;94577.34;1019549;29;19962;-70
2022/04/23 01:29:29;;;;;;;;;;;;;;;6.59;100.00;94573.72;1022526;28;19969;-70
2022/04/23 01:29:59;;;;;;;;;;;;;;;6.61;100.00;94571.63;1023260;28;19961;-71
2022/04/23 01:30:33;;;;;;;;;;;;;;;6.62;100.00;94578.41;1026681;28;20748;-71
2022/04/23 01:31:04;;;;;;;;;;;;;;;6.65;100.00;94577.09;1026781;28;20372;-70
2022/04/23 01:31:34;;;;;;;;;;;;;;;6.65;100.00;94571.88;1026473;28;20322;-70
2022/04/23 01:32:05;;;;;;;;;;;;;;;6.61;100.00;94566.41;1022780;28;19914;-72
2022/04/23 01:32:35;;;;;;;;;;;;;;;6.58;100.00;94575.53;1019669;28;19914;-72
2022/04/23 01:33:05;;;;;;;;;;;;;;;6.61;100.00;94572.41;1023131;28;20307;-71
2022/04/23 01:33:36;;;;;;;;;;;;;;;6.63;100.00;94572.13;1022552;28;20222;-72
2022/04/23 01:34:06;;;;;;;;;;;;;;;6.59;100.00;94569.28;1023078;29;19917;-72
2022/04/23 01:34:36;;;;;;;;;;;;;;;6.60;100.00;94575.25;1022647;28;19923;-72
2022/04/23 01:35:07;;;;;;;;;;;;;;;6.55;100.00;94570.09;1028336;28;19913;-71
2022/04/23 01:35:37;;;;;;;;;;;;;;;6.56;100.00;94566.41;1024215;28;20435;-70
2022/04/23 01:36:10;;;;;;;;;;;;;;;6.56;100.00;94574.25;1030685;28;20315;-71
2022/04/23 01:36:40;;;;;;;;;;;;;;;6.53;100.00;94572.16;1022399;28;20465;-70
2022/04/23 01:37:12;;;;;;;;;;;;;;;6.56;100.00;94574.25;1022613;29;20035;-71
2022/04/23 01:37:43;;;;;;;;;;;;;;;6.57;100.00;94570.56;1019138;29;20425;-71
2022/04/23 01:38:14;;;;;;;;;;;;;;;6.58;100.00;94572.16;1019246;28;19940;-71
2022/04/23 01:38:45;;;;;;;;;;;;;;;6.61;100.00;94582.06;1026868;28;19914;-71
2022/04/23 01:39:15;;;;;;;;;;;;;;;6.60;100.00;94577.88;1022941;29;20408;-70
2022/04/23 01:39:46;;;;;;;;;;;;;;;6.60;100.00;94572.66;1026406;28;19968;-71
2022/04/23 01:40:17;;;;;;;;;;;;;;;6.59;100.00;94566.66;1026691;28;20368;-70
2022/04/23 01:40:48;;;;;;;;;;;;;;;6.61;100.00;94569.03;1027216;28;19910;-72
2022/04/23 01:41:18;;;;;;;;;;;;;;;6.61;100.00;94574.25;1028952;28;20376;-71
2022/04/23 01:41:48;;;;;;;;;;;;;;;6.63;100.00;94579.16;1030007;28;19961;-70
2022/04/23 01:42:22;;;;;;;;;;;;;;;6.59;100.00;94576.31;1029835;28;19910;-71
2022/04/23 01:42:53;;;;;;;;;;;;;;;6.59;100.00;94574.50;1025046;28;20367;-70
2022/04/23 01:43:23;;;;;;;;;;;;;;;6.61;100.00;94574.25;1023021;29;19915;-71
2022/04/23 01:43:53;;;;;;;;;;;;;;;6.58;100.00;94572.94;1022690;29;19907;-71
2022/04/23 01:44:24;;;;;;;;;;;;;;;6.55;100.00;94570.84;1022874;28;19985;-71
2022/04/23 01:44:54;;;;;;;;;;;;;;;6.51;100.00;94566.44;1031040;28;19906;-71
2022/04/23 01:45:24;;;;;;;;;;;;;;;6.54;100.00;94569.31;1030838;28;19925;-71
2022/04/23 01:45:55;;;;;;;;;;;;;;;6.53;100.00;94572.16;1026697;28;20375;-71
2022/04/23 01:46:25;;;;;;;;;;;;;;;6.53;100.00;94570.34;1022723;28;19989;-71
2022/04/23 01:46:55;;;;;;;;;;;;;;;6.55;100.00;94570.09;1018241;29;19918;-71
2022/04/23 01:47:26;;;;;;;;;;;;;;;6.56;100.00;94569.03;1019151;28;19949;-71
2022/04/23 01:47:56;;;;;;;;;;;;;;;6.51;100.00;94566.44;1026624;28;20348;-71
2022/04/23 01:48:26;;;;;;;;;;;;;;;6.55;100.00;94572.69;1025878;28;19910;-70
2022/04/23 01:48:57;;;;;;;;;;;;;;;6.54;100.00;94566.69;1022669;29;19922;-71
2022/04/23 01:49:28;;;;;;;;;;;;;;;6.56;100.00;94563.81;1026352;28;19929;-71
2022/04/23 01:49:58;;;;;;;;;;;;;;;6.58;100.00;94570.31;1022963;28;19933;-71
2022/04/23 01:50:29;;;;;;;;;;;;;;;6.58;100.00;94574.75;1026788;28;20366;-71
2022/04/23 01:50:59;;;;;;;;;;;;;;;6.59;100.00;94573.72;1022722;29;19942;-71
2022/04/23 01:51:29;;;;;;;;;;;;;;;6.59;100.00;94573.72;1018868;29;19925;-71
2022/04/23 01:52:00;;;;;;;;;;;;;;;6.60;100.00;94567.44;1022668;29;19973;-70
2022/04/23 01:52:30;;;;;;;;;;;;;;;6.61;100.00;94569.03;1018783;28;19929;-71
2022/04/23 01:53:02;;;;;;;;;;;;;;;6.60;100.00;94572.66;1018737;29;19919;-72
2022/04/23 01:53:32;;;;;;;;;;;;;;;6.60;100.00;94570.81;1015422;29;19930;-72
2022/04/23 01:54:03;;;;;;;;;;;;;;;6.62;100.00;94573.19;1011822;29;20389;-71
2022/04/23 01:54:33;;;;;;;;;;;;;;;6.58;100.00;94569.56;1016506;29;19930;-71
2022/04/23 01:55:04;;;;;;;;;;;;;;;6.59;100.00;94573.72;1019788;29;20328;-71
2022/04/23 01:55:34;;;;;;;;;;;;;;;6.53;100.00;94572.16;1021920;29;19949;-71
2022/04/23 01:56:04;;;;;;;;;;;;;;;6.52;100.00;94573.22;1019715;29;20584;-71
2022/04/23 01:56:35;;;;;;;;;;;;;;;6.52;100.00;94562.78;1021656;28;19923;-71
2022/04/23 01:57:05;;;;;;;;;;;;;;;6.54;100.00;94571.13;1027101;28;19926;-70
2022/04/23 01:57:36;;;;;;;;;;;;;;;6.51;100.00;94566.44;1019297;29;19925;-70
2022/04/23 01:58:06;;;;;;;;;;;;;;;6.49;100.00;94568.53;1023090;28;20383;-71
2022/04/23 01:58:36;;;;;;;;;;;;;;;6.50;100.00;94564.88;1024270;28;19958;-71
2022/04/23 01:59:07;;;;;;;;;;;;;;;6.50;100.00;94568.25;1027350;28;19918;-71
2022/04/23 01:59:37;;;;;;;;;;;;;;;6.51;100.00;94563.84;1031943;28;19918;-71
2022/04/23 02:00:08;;;;;;;;;;;;;;;6.51;100.00;94567.22;1031684;28;19918;-71
2022/04/23 02:00:39;;;;;;;;;;;;;;;6.51;100.00;94571.66;1031073;28;19957;-71
2022/04/23 02:01:10;;;;;;;;;;;;;;;6.50;100.00;94564.88;1031784;28;19918;-72
2022/04/23 02:01:41;;;;;;;;;;;;;;;6.50;100.00;94564.88;1027172;28;19918;-71
2022/04/23 02:02:11;;;;;;;;;;;;;;;6.48;100.00;94562.53;1027525;28;19974;-70
2022/04/23 02:02:41;;;;;;;;;;;;;;;6.47;100.00;94560.19;1031615;28;19914;-72
2022/04/23 02:03:12;;;;;;;;;;;;;;;6.45;100.00;94552.66;1027233;28;20402;-71
2022/04/23 02:03:45;;;;;;;;;;;;;;;6.44;100.00;94560.72;1031733;28;20489;-72
2022/04/23 02:04:15;;;;;;;;;;;;;;;6.41;100.00;94556.06;1031239;28;19938;-72
2022/04/23 02:04:45;;;;;;;;;;;;;;;6.38;100.00;94559.97;1027251;28;20002;-70
2022/04/23 02:05:16;;;;;;;;;;;;;;;6.36;100.00;94551.63;1019855;29;20697;-71
2022/04/23 02:05:46;;;;;;;;;;;;;;;6.32;100.00;94563.63;1023398;29;19922;-71
2022/04/23 02:06:16;;;;;;;;;;;;;;;6.32;100.00;94558.41;1023574;29;19958;-71
2022/04/23 02:06:49;;;;;;;;;;;;;;;6.34;100.00;94558.94;1016836;29;19973;-70
2022/04/23 02:07:22;;;;;;;;;;;;;;;6.36;100.00;94557.63;1019727;29;19922;-71
2022/04/23 02:07:52;;;;;;;;;;;;;;;6.37;100.00;94555.78;1020562;29;20730;-71
2022/04/23 02:08:23;;;;;;;;;;;;;;;6.37;100.00;94553.97;1028194;28;19929;-71
2022/04/23 02:08:53;;;;;;;;;;;;;;;6.41;100.00;94556.84;1027466;28;19918;-71
2022/04/23 02:09:24;;;;;;;;;;;;;;;6.36;100.00;94562.81;1028161;28;19914;-71
2022/04/23 02:09:54;;;;;;;;;;;;;;;6.35;100.00;94563.88;1027559;28;19976;-72
2022/04/23 02:10:24;;;;;;;;;;;;;;;6.33;100.00;94555.53;1027709;28;19918;-71
2022/04/23 02:10:55;;;;;;;;;;;;;;;6.31;100.00;94560.25;1027899;28;19921;-71
2022/04/23 02:11:25;;;;;;;;;;;;;;;6.33;100.00;94563.34;1019647;29;19977;-70
2022/04/23 02:11:56;;;;;;;;;;;;;;;6.33;100.00;94558.13;1022470;28;19911;-70
2022/04/23 02:12:27;;;;;;;;;;;;;;;6.31;100.00;94562.84;1023495;28;19985;-71
2022/04/23 02:12:57;;;;;;;;;;;;;;;6.33;100.00;94554.75;1023862;28;19968;-71
2022/04/23 02:13:28;;;;;;;;;;;;;;;6.35;100.00;94557.88;1028094;28;19969;-71
2022/04/23 02:13:58;;;;;;;;;;;;;;;6.34;100.00;94564.94;1027321;28;19918;-72
2022/04/23 02:14:28;;;;;;;;;;;;;;;6.34;100.00;94561.56;1023683;29;20492;-72
2022/04/23 02:14:59;;;;;;;;;;;;;;;6.38;100.00;94568.56;1023692;29;19922;-72
2022/04/23 02:15:32;;;;;;;;;;;;;;;6.37;100.00;94561.81;1027612;28;20004;-71
2022/04/23 02:16:04;;;;;;;;;;;;;;;6.36;100.00;94560.22;1027931;28;19937;-72
2022/04/23 02:16:34;;;;;;;;;;;;;;;6.37;100.00;94561.81;1027578;28;19946;-72
2022/04/23 02:17:05;;;;;;;;;;;;;;;6.41;100.00;94564.66;1027538;28;20387;-70
2022/04/23 02:17:39;;;;;;;;;;;;;;;6.40;100.00;94557.88;1026906;28;19914;-72
2022/04/23 02:18:10;;;;;;;;;;;;;;;6.36;100.00;94562.81;1027613;28;19922;-71
2022/04/23 02:18:41;;;;;;;;;;;;;;;6.35;100.00;94557.88;1023791;29;19906;-72
2022/04/23 02:19:13;;;;;;;;;;;;;;;6.36;100.00;94562.81;1022493;28;19926;-70
2022/04/23 02:19:43;;;;;;;;;;;;;;;6.35;100.00;94565.72;1027141;28;19918;-71
2022/04/23 02:20:15;;;;;;;;;;;;;;;6.32;100.00;94563.63;1024111;28;20400;-71
2022/04/23 02:20:46;;;;;;;;;;;;;;;6.33;100.00;94571.16;1025463;28;19965;-70
2022/04/23 02:21:19;;;;;;;;;;;;;;;6.30;100.00;94571.69;1031527;28;20363;-71
2022/04/23 02:21:49;;;;;;;;;;;;;;;6.31;100.00;94562.84;1031906;28;19914;-71
2022/04/23 02:22:19;;;;;;;;;;;;;;;6.34;100.00;94564.94;1027639;28;20017;-71
2022/04/23 02:22:50;;;;;;;;;;;;;;;6.28;100.00;94563.38;1027855;28;19910;-71
2022/04/23 02:23:20;;;;;;;;;;;;;;;6.28;100.00;94568.59;1023351;28;19911;-71
2022/04/23 02:23:53;;;;;;;;;;;;;;;6.30;100.00;94566.47;1015690;29;20470;-72
2022/04/23 02:24:24;;;;;;;;;;;;;;;6.30;100.00;94570.91;1019182;29;19919;-71
2022/04/23 02:24:54;;;;;;;;;;;;;;;6.29;100.00;94569.38;1019993;29;19946;-70
2022/04/23 02:25:24;;;;;;;;;;;;;;;6.33;100.00;94578.19;1016553;29;20403;-71
2022/04/23 02:25:55;;;;;;;;;;;;;;;6.28;100.00;94567.81;1023597;28;19915;-71
2022/04/23 02:26:25;;;;;;;;;;;;;;;6.29;100.00;94575.34;1017489;29;19927;-70
2022/04/23 02:26:55;;;;;;;;;;;;;;;6.27;100.00;94574.84;1019054;29;20400;-70
2022/04/23 02:27:26;;;;;;;;;;;;;;;6.31;100.00;94568.06;1023592;28;19911;-70
2022/04/23 02:27:56;;;;;;;;;;;;;;;6.33;100.00;94575.59;1027350;28;19918;-69
2022/04/23 02:28:26;;;;;;;;;;;;;;;6.33;100.00;94570.38;1031840;28;19933;-70
2022/04/23 02:28:56;;;;;;;;;;;;;;;6.30;100.00;94574.28;1027535;28;19956;-71
2022/04/23 02:29:27;;;;;;;;;;;;;;;6.34;100.00;94577.97;1026399;28;20691;-71
2022/04/23 02:29:57;;;;;;;;;;;;;;;6.33;100.00;94571.16;1023653;28;19922;-70
2022/04/23 02:30:27;;;;;;;;;;;;;;;6.31;100.00;94572.50;1027613;28;19968;-70
2022/04/23 02:30:58;;;;;;;;;;;;;;;6.29;100.00;94570.13;1027447;28;19922;-70
2022/04/23 02:31:28;;;;;;;;;;;;;;;6.32;100.00;94566.22;1031753;28;19922;-71
2022/04/23 02:31:58;;;;;;;;;;;;;;;6.29;100.00;94567.53;1027340;28;19910;-71
2022/04/23 02:32:28;;;;;;;;;;;;;;;6.29;100.00;94562.31;1027852;28;20430;-71
2022/04/23 02:32:59;;;;;;;;;;;;;;;6.33;100.00;94565.19;1023310;28;19914;-72
2022/04/23 02:33:29;;;;;;;;;;;;;;;6.32;100.00;94568.84;1019652;29;19911;-72
2022/04/23 02:33:59;;;;;;;;;;;;;;;6.30;100.00;94563.88;1028346;28;19910;-72
2022/04/23 02:34:30;;;;;;;;;;;;;;;6.29;100.00;94564.16;1026671;28;19906;-71
2022/04/23 02:35:00;;;;;;;;;;;;;;;6.30;100.00;94556.06;1028085;28;19910;-71
2022/04/23 02:35:34;;;;;;;;;;;;;;;6.27;100.00;94571.44;1024346;29;19920;-71
2022/04/23 02:36:06;;;;;;;;;;;;;;;6.28;100.00;94558.16;1020226;29;19911;-71
2022/04/23 02:36:37;;;;;;;;;;;;;;;6.27;100.00;94566.22;1016317;29;20342;-71
2022/04/23 02:37:08;;;;;;;;;;;;;;;6.27;100.00;94561.03;1015950;29;20457;-71
2022/04/23 02:37:38;;;;;;;;;;;;;;;6.25;100.00;94558.69;1016201;28;19922;-71
2022/04/23 02:38:09;;;;;;;;;;;;;;;6.24;100.00;94549.31;1024311;28;19925;-71
2022/04/23 02:38:40;;;;;;;;;;;;;;;6.26;100.00;94554.25;1031515;28;20363;-71
2022/04/23 02:39:11;;;;;;;;;;;;;;;5.93;100.00;94503.53;1027646;28;19924;-70
2022/04/23 02:39:41;;;;;;;;;;;;;;;6.23;100.00;94554.78;1022680;28;19914;-71
2022/04/23 02:40:11;;;;;;;;;;;;;;;6.20;100.00;94550.88;1023456;29;19915;-70
2022/04/23 02:40:42;;;;;;;;;;;;;;;6.22;100.00;94553.22;1020211;28;19922;-71
2022/04/23 02:41:12;;;;;;;;;;;;;;;6.26;100.00;94551.66;1023525;28;19918;-71
2022/04/23 02:41:42;;;;;;;;;;;;;;;6.27;100.00;94550.59;1019677;29;19943;-71
2022/04/23 02:42:13;;;;;;;;;;;;;;;6.28;100.00;94550.34;1019631;29;19911;-71